Startpagina
METAR-TAF:

METAR-TAF

Vliegvelden :

Boscombe Down, Engeland

breedte: 51-10N, lengte: 001-45W, hoogte: 124 m

Actueel weer

Dit bericht is 44 minuten geleden gemaakt, om 19:50 UTC
Wind 12 kt uit het noordnoordoosten
Temperatuur 13°C
Vochtigheid 88%
Druk 1007 hPa

METAR: EGDM 031950Z AUTO 02012KT //// FEW016/// OVC050/// 13/11 Q1007

Tijdstip: 21:34 (20:34 UTC)

Verwachting

Dit bericht is 10 uur en het 7 minuten geleden gemaakt, om 10:27 UTC
Verwachting geldig van 03 om 12 UTC tot 03 om 16 UTC
Wind 8 kt uit het noordnoordoosten
Zicht 10 km of meer
Weinig wolken op 2500 ft
Tijdelijke
van 03 om 12 UTC tot 03 om 16 UTC
Verspreide wolken op 2000 ft
Kans 30% :
Tijdelijke
van 03 om 12 UTC tot 03 om 16 UTC
Zicht: 5000 m
Verspreide wolken op 1200 ft
regen

TAF: EGDM 031027Z 0312/0316 02008KT 9999 FEW025 TEMPO 0312/0316 SCT020 PROB30 TEMPO 0312/0316 5000 RA SCT012

Waarnemingen en weersverwachtingen van meer dan 4000 vliegvelden (METAR en TAF).

De beschikbare stations zijn de gele en rode punten op de kaart.

Ga met uw muis naar het station om de naam te zien.

Klik dan om waarnemingen en weersverwachtingen te zien.

kaart wijzigen: klik op de groene knoppen met een zwart kruis om in te zoomen, op de groene knop met een streepje om uit te zoomen of op de groene pijlen voor aangrenzende kaarten.


METAR-TAF: